sensor_id;sensor_type;location;lat;lon;timestamp;temperature;humidity
15625;DHT22;7912;51.376;6.126;2023-04-24T00:01:31;13.90;99.90
15625;DHT22;7912;51.376;6.126;2023-04-24T00:03:58;13.80;99.90
15625;DHT22;7912;51.376;6.126;2023-04-24T00:06:26;13.80;99.90
15625;DHT22;7912;51.376;6.126;2023-04-24T00:09:00;13.80;99.90
15625;DHT22;7912;51.376;6.126;2023-04-24T00:11:28;13.80;99.90
15625;DHT22;7912;51.376;6.126;2023-04-24T00:13:56;13.80;99.90
15625;DHT22;7912;51.376;6.126;2023-04-24T00:16:24;13.80;99.90
15625;DHT22;7912;51.376;6.126;2023-04-24T00:18:51;13.80;99.90
15625;DHT22;7912;51.376;6.126;2023-04-24T00:21:23;13.80;99.90
15625;DHT22;7912;51.376;6.126;2023-04-24T00:23:53;13.80;99.90
15625;DHT22;7912;51.376;6.126;2023-04-24T00:26:20;13.80;99.90
15625;DHT22;7912;51.376;6.126;2023-04-24T00:28:47;13.80;99.90
15625;DHT22;7912;51.376;6.126;2023-04-24T00:31:18;13.80;99.90
15625;DHT22;7912;51.376;6.126;2023-04-24T00:33:45;13.80;99.90
15625;DHT22;7912;51.376;6.126;2023-04-24T00:36:13;13.80;99.90
15625;DHT22;7912;51.376;6.126;2023-04-24T00:38:40;13.70;99.90
15625;DHT22;7912;51.376;6.126;2023-04-24T00:41:07;13.70;99.90
15625;DHT22;7912;51.376;6.126;2023-04-24T00:43:35;13.70;99.90
15625;DHT22;7912;51.376;6.126;2023-04-24T00:46:02;13.70;99.90
15625;DHT22;7912;51.376;6.126;2023-04-24T00:48:30;13.60;99.90
15625;DHT22;7912;51.376;6.126;2023-04-24T00:50:59;13.60;99.90
15625;DHT22;7912;51.376;6.126;2023-04-24T00:53:26;13.60;99.90
15625;DHT22;7912;51.376;6.126;2023-04-24T00:55:53;13.60;99.90
15625;DHT22;7912;51.376;6.126;2023-04-24T00:58:21;13.50;99.90
15625;DHT22;7912;51.376;6.126;2023-04-24T01:00:50;13.50;99.90
15625;DHT22;7912;51.376;6.126;2023-04-24T01:03:22;13.50;99.90
15625;DHT22;7912;51.376;6.126;2023-04-24T01:05:54;13.50;99.90
15625;DHT22;7912;51.376;6.126;2023-04-24T01:08:26;13.50;99.90
15625;DHT22;7912;51.376;6.126;2023-04-24T01:10:55;13.40;99.90
15625;DHT22;7912;51.376;6.126;2023-04-24T01:13:24;13.40;99.90
15625;DHT22;7912;51.376;6.126;2023-04-24T01:15:51;13.40;99.90
15625;DHT22;7912;51.376;6.126;2023-04-24T01:18:22;13.40;99.90
15625;DHT22;7912;51.376;6.126;2023-04-24T01:20:51;13.40;99.90
15625;DHT22;7912;51.376;6.126;2023-04-24T01:23:20;13.40;99.90
15625;DHT22;7912;51.376;6.126;2023-04-24T01:25:49;13.40;99.90
15625;DHT22;7912;51.376;6.126;2023-04-24T01:28:35;13.30;99.90
15625;DHT22;7912;51.376;6.126;2023-04-24T01:31:04;13.40;99.90
15625;DHT22;7912;51.376;6.126;2023-04-24T01:33:32;13.30;99.90
15625;DHT22;7912;51.376;6.126;2023-04-24T01:35:59;13.30;99.90
15625;DHT22;7912;51.376;6.126;2023-04-24T01:38:27;13.30;99.90
15625;DHT22;7912;51.376;6.126;2023-04-24T01:40:55;13.30;99.90
15625;DHT22;7912;51.376;6.126;2023-04-24T01:43:22;13.30;99.90
15625;DHT22;7912;51.376;6.126;2023-04-24T01:45:50;13.30;99.90
15625;DHT22;7912;51.376;6.126;2023-04-24T01:48:18;13.30;99.90
15625;DHT22;7912;51.376;6.126;2023-04-24T01:50:45;13.30;99.90
15625;DHT22;7912;51.376;6.126;2023-04-24T01:53:13;13.30;99.90
15625;DHT22;7912;51.376;6.126;2023-04-24T01:55:41;13.30;99.90
15625;DHT22;7912;51.376;6.126;2023-04-24T01:58:08;13.30;99.90
15625;DHT22;7912;51.376;6.126;2023-04-24T02:00:36;13.30;99.90
15625;DHT22;7912;51.376;6.126;2023-04-24T02:03:03;13.30;99.90
15625;DHT22;7912;51.376;6.126;2023-04-24T02:05:31;13.20;99.90
15625;DHT22;7912;51.376;6.126;2023-04-24T02:07:58;13.20;99.90
15625;DHT22;7912;51.376;6.126;2023-04-24T02:10:26;13.20;99.90
15625;DHT22;7912;51.376;6.126;2023-04-24T02:12:53;13.20;99.90
15625;DHT22;7912;51.376;6.126;2023-04-24T02:15:20;13.20;99.90
15625;DHT22;7912;51.376;6.126;2023-04-24T02:17:48;13.20;99.90
15625;DHT22;7912;51.376;6.126;2023-04-24T02:20:15;13.20;99.90
15625;DHT22;7912;51.376;6.126;2023-04-24T02:22:42;13.20;99.90
15625;DHT22;7912;51.376;6.126;2023-04-24T02:25:10;13.20;99.90
15625;DHT22;7912;51.376;6.126;2023-04-24T02:27:37;13.20;99.90
15625;DHT22;7912;51.376;6.126;2023-04-24T02:30:05;13.20;99.90
15625;DHT22;7912;51.376;6.126;2023-04-24T02:32:33;13.20;99.90
15625;DHT22;7912;51.376;6.126;2023-04-24T02:38:05;13.20;99.90
15625;DHT22;7912;51.376;6.126;2023-04-24T02:40:32;13.20;99.90
15625;DHT22;7912;51.376;6.126;2023-04-24T02:43:00;13.20;99.90
15625;DHT22;7912;51.376;6.126;2023-04-24T02:45:27;13.20;99.90
15625;DHT22;7912;51.376;6.126;2023-04-24T02:47:55;13.20;99.90
15625;DHT22;7912;51.376;6.126;2023-04-24T02:50:22;13.20;99.90
15625;DHT22;7912;51.376;6.126;2023-04-24T02:52:50;13.20;99.90
15625;DHT22;7912;51.376;6.126;2023-04-24T02:55:17;13.20;99.90
15625;DHT22;7912;51.376;6.126;2023-04-24T02:57:45;13.20;99.90
15625;DHT22;7912;51.376;6.126;2023-04-24T03:00:12;13.20;99.90
15625;DHT22;7912;51.376;6.126;2023-04-24T03:02:40;13.20;99.90
15625;DHT22;7912;51.376;6.126;2023-04-24T03:05:07;13.20;99.90
15625;DHT22;7912;51.376;6.126;2023-04-24T03:07:35;13.20;99.90
15625;DHT22;7912;51.376;6.126;2023-04-24T03:10:04;13.20;99.90
15625;DHT22;7912;51.376;6.126;2023-04-24T03:12:32;13.20;99.90
15625;DHT22;7912;51.376;6.126;2023-04-24T03:14:59;13.20;99.90
15625;DHT22;7912;51.376;6.126;2023-04-24T03:17:27;13.20;99.90
15625;DHT22;7912;51.376;6.126;2023-04-24T03:19:57;13.20;99.90
15625;DHT22;7912;51.376;6.126;2023-04-24T03:22:24;13.20;99.90
15625;DHT22;7912;51.376;6.126;2023-04-24T03:24:52;13.20;99.90
15625;DHT22;7912;51.376;6.126;2023-04-24T03:27:19;13.20;99.90
15625;DHT22;7912;51.376;6.126;2023-04-24T03:29:46;13.20;99.90
15625;DHT22;7912;51.376;6.126;2023-04-24T03:32:14;13.20;99.90
15625;DHT22;7912;51.376;6.126;2023-04-24T03:34:41;13.20;99.90
15625;DHT22;7912;51.376;6.126;2023-04-24T03:37:08;13.20;99.90
15625;DHT22;7912;51.376;6.126;2023-04-24T03:39:36;13.20;99.90
15625;DHT22;7912;51.376;6.126;2023-04-24T03:42:03;13.20;99.90
15625;DHT22;7912;51.376;6.126;2023-04-24T03:44:30;13.20;99.90
15625;DHT22;7912;51.376;6.126;2023-04-24T03:46:58;13.20;99.90
15625;DHT22;7912;51.376;6.126;2023-04-24T03:49:26;13.20;99.90
15625;DHT22;7912;51.376;6.126;2023-04-24T03:51:53;13.10;99.90
15625;DHT22;7912;51.376;6.126;2023-04-24T03:54:20;13.10;99.90
15625;DHT22;7912;51.376;6.126;2023-04-24T03:56:48;13.10;99.90
15625;DHT22;7912;51.376;6.126;2023-04-24T03:59:15;13.10;99.90
15625;DHT22;7912;51.376;6.126;2023-04-24T04:01:43;13.10;99.90
15625;DHT22;7912;51.376;6.126;2023-04-24T04:04:10;13.10;99.90
15625;DHT22;7912;51.376;6.126;2023-04-24T04:06:38;13.10;99.90
15625;DHT22;7912;51.376;6.126;2023-04-24T04:09:09;13.10;99.90
15625;DHT22;7912;51.376;6.126;2023-04-24T04:11:37;13.10;99.90
15625;DHT22;7912;51.376;6.126;2023-04-24T04:14:05;13.10;99.90
15625;DHT22;7912;51.376;6.126;2023-04-24T04:16:32;13.10;99.90
15625;DHT22;7912;51.376;6.126;2023-04-24T04:19:00;13.10;99.90
15625;DHT22;7912;51.376;6.126;2023-04-24T04:21:29;13.10;99.90
15625;DHT22;7912;51.376;6.126;2023-04-24T04:23:58;13.00;99.90
15625;DHT22;7912;51.376;6.126;2023-04-24T04:26:25;13.00;99.90
15625;DHT22;7912;51.376;6.126;2023-04-24T04:28:52;13.00;99.90
15625;DHT22;7912;51.376;6.126;2023-04-24T04:31:21;13.00;99.90
15625;DHT22;7912;51.376;6.126;2023-04-24T04:33:48;13.00;99.90
15625;DHT22;7912;51.376;6.126;2023-04-24T04:36:15;13.00;99.90
15625;DHT22;7912;51.376;6.126;2023-04-24T04:38:44;13.00;99.90
15625;DHT22;7912;51.376;6.126;2023-04-24T04:41:11;13.00;99.90
15625;DHT22;7912;51.376;6.126;2023-04-24T04:43:38;12.90;99.90
15625;DHT22;7912;51.376;6.126;2023-04-24T04:46:07;12.90;99.90
15625;DHT22;7912;51.376;6.126;2023-04-24T04:48:35;12.90;99.90
15625;DHT22;7912;51.376;6.126;2023-04-24T04:51:02;12.90;99.90
15625;DHT22;7912;51.376;6.126;2023-04-24T04:53:29;12.80;99.90
15625;DHT22;7912;51.376;6.126;2023-04-24T04:55:57;12.80;99.90
15625;DHT22;7912;51.376;6.126;2023-04-24T04:58:24;12.80;99.90
15625;DHT22;7912;51.376;6.126;2023-04-24T05:00:52;12.80;99.90
15625;DHT22;7912;51.376;6.126;2023-04-24T05:03:22;12.70;99.90
15625;DHT22;7912;51.376;6.126;2023-04-24T05:05:49;12.80;99.90
15625;DHT22;7912;51.376;6.126;2023-04-24T05:08:16;12.70;99.90
15625;DHT22;7912;51.376;6.126;2023-04-24T05:10:52;12.80;99.90
15625;DHT22;7912;51.376;6.126;2023-04-24T05:13:20;12.70;99.90
15625;DHT22;7912;51.376;6.126;2023-04-24T05:16:01;12.70;99.90
15625;DHT22;7912;51.376;6.126;2023-04-24T05:18:29;12.70;99.90
15625;DHT22;7912;51.376;6.126;2023-04-24T05:20:57;12.70;99.90
15625;DHT22;7912;51.376;6.126;2023-04-24T05:23:24;12.60;99.90
15625;DHT22;7912;51.376;6.126;2023-04-24T05:25:52;12.60;99.90
15625;DHT22;7912;51.376;6.126;2023-04-24T05:28:19;12.60;99.90
15625;DHT22;7912;51.376;6.126;2023-04-24T05:30:47;12.60;99.90
15625;DHT22;7912;51.376;6.126;2023-04-24T05:33:15;12.60;99.90
15625;DHT22;7912;51.376;6.126;2023-04-24T05:35:42;12.60;99.90
15625;DHT22;7912;51.376;6.126;2023-04-24T05:38:13;12.50;99.90
15625;DHT22;7912;51.376;6.126;2023-04-24T05:40:44;12.50;99.90
15625;DHT22;7912;51.376;6.126;2023-04-24T05:51:32;12.40;99.90
15625;DHT22;7912;51.376;6.126;2023-04-24T05:53:59;12.30;99.90
15625;DHT22;7912;51.376;6.126;2023-04-24T05:56:29;12.30;99.90
15625;DHT22;7912;51.376;6.126;2023-04-24T05:58:57;12.30;99.90
15625;DHT22;7912;51.376;6.126;2023-04-24T06:01:43;12.20;99.90
15625;DHT22;7912;51.376;6.126;2023-04-24T06:04:12;12.20;99.90
15625;DHT22;7912;51.376;6.126;2023-04-24T06:10:57;12.20;99.90
15625;DHT22;7912;51.376;6.126;2023-04-24T06:17:43;12.10;99.90
15625;DHT22;7912;51.376;6.126;2023-04-24T06:20:11;12.10;99.90
15625;DHT22;7912;51.376;6.126;2023-04-24T06:22:39;12.10;99.90
15625;DHT22;7912;51.376;6.126;2023-04-24T06:25:07;12.10;99.90
15625;DHT22;7912;51.376;6.126;2023-04-24T06:27:35;12.10;99.90
15625;DHT22;7912;51.376;6.126;2023-04-24T06:30:02;12.10;99.90
15625;DHT22;7912;51.376;6.126;2023-04-24T06:32:31;12.10;99.90
15625;DHT22;7912;51.376;6.126;2023-04-24T06:34:59;12.10;99.90
15625;DHT22;7912;51.376;6.126;2023-04-24T06:37:27;12.10;99.90
15625;DHT22;7912;51.376;6.126;2023-04-24T06:39:56;12.10;99.90
15625;DHT22;7912;51.376;6.126;2023-04-24T06:42:31;12.00;99.90
15625;DHT22;7912;51.376;6.126;2023-04-24T06:45:05;12.00;99.90
15625;DHT22;7912;51.376;6.126;2023-04-24T06:47:46;12.00;99.90
15625;DHT22;7912;51.376;6.126;2023-04-24T06:50:58;11.90;99.90
15625;DHT22;7912;51.376;6.126;2023-04-24T06:53:25;11.90;99.90
15625;DHT22;7912;51.376;6.126;2023-04-24T06:59:29;11.80;99.90
15625;DHT22;7912;51.376;6.126;2023-04-24T07:01:57;11.70;99.90
15625;DHT22;7912;51.376;6.126;2023-04-24T07:04:33;11.70;99.90
15625;DHT22;7912;51.376;6.126;2023-04-24T07:07:14;11.60;99.90
15625;DHT22;7912;51.376;6.126;2023-04-24T07:09:47;11.60;99.90
15625;DHT22;7912;51.376;6.126;2023-04-24T07:12:24;11.60;99.90
15625;DHT22;7912;51.376;6.126;2023-04-24T07:15:45;11.50;99.90
15625;DHT22;7912;51.376;6.126;2023-04-24T07:18:24;11.50;99.90
15625;DHT22;7912;51.376;6.126;2023-04-24T07:21:05;11.40;99.90
15625;DHT22;7912;51.376;6.126;2023-04-24T07:24:07;11.40;99.90
15625;DHT22;7912;51.376;6.126;2023-04-24T07:27:10;11.40;99.90
15625;DHT22;7912;51.376;6.126;2023-04-24T07:29:56;11.40;99.90
15625;DHT22;7912;51.376;6.126;2023-04-24T07:32:24;11.40;99.90
15625;DHT22;7912;51.376;6.126;2023-04-24T07:35:04;11.40;99.90
15625;DHT22;7912;51.376;6.126;2023-04-24T07:37:40;11.40;99.90
15625;DHT22;7912;51.376;6.126;2023-04-24T07:40:17;11.40;99.90
15625;DHT22;7912;51.376;6.126;2023-04-24T07:42:56;11.40;99.90
15625;DHT22;7912;51.376;6.126;2023-04-24T07:45:34;11.50;99.90
15625;DHT22;7912;51.376;6.126;2023-04-24T07:48:11;11.50;99.90
15625;DHT22;7912;51.376;6.126;2023-04-24T07:50:54;11.60;99.90
15625;DHT22;7912;51.376;6.126;2023-04-24T07:53:41;11.60;99.90
15625;DHT22;7912;51.376;6.126;2023-04-24T07:56:25;11.60;99.90
15625;DHT22;7912;51.376;6.126;2023-04-24T07:58:59;11.70;99.90
15625;DHT22;7912;51.376;6.126;2023-04-24T08:01:58;11.70;99.90
15625;DHT22;7912;51.376;6.126;2023-04-24T08:04:42;11.80;99.90
15625;DHT22;7912;51.376;6.126;2023-04-24T08:07:15;11.80;99.90
15625;DHT22;7912;51.376;6.126;2023-04-24T08:09:56;11.70;99.90
15625;DHT22;7912;51.376;6.126;2023-04-24T08:12:28;11.70;99.90
15625;DHT22;7912;51.376;6.126;2023-04-24T08:15:28;11.70;99.90
15625;DHT22;7912;51.376;6.126;2023-04-24T08:17:59;11.70;99.90
15625;DHT22;7912;51.376;6.126;2023-04-24T08:20:26;11.70;99.90
15625;DHT22;7912;51.376;6.126;2023-04-24T08:22:54;11.60;99.90
15625;DHT22;7912;51.376;6.126;2023-04-24T08:25:22;11.60;99.90
15625;DHT22;7912;51.376;6.126;2023-04-24T08:27:52;11.60;99.90
15625;DHT22;7912;51.376;6.126;2023-04-24T08:30:25;11.60;99.90
15625;DHT22;7912;51.376;6.126;2023-04-24T08:32:57;11.50;99.90
15625;DHT22;7912;51.376;6.126;2023-04-24T08:35:26;11.50;99.90
15625;DHT22;7912;51.376;6.126;2023-04-24T08:37:57;11.50;99.90
15625;DHT22;7912;51.376;6.126;2023-04-24T08:40:32;11.50;99.90
15625;DHT22;7912;51.376;6.126;2023-04-24T08:43:03;11.50;99.90
15625;DHT22;7912;51.376;6.126;2023-04-24T08:45:34;11.50;99.90
15625;DHT22;7912;51.376;6.126;2023-04-24T08:48:02;11.50;99.90
15625;DHT22;7912;51.376;6.126;2023-04-24T08:50:52;11.50;99.90
15625;DHT22;7912;51.376;6.126;2023-04-24T08:53:20;11.40;99.90
15625;DHT22;7912;51.376;6.126;2023-04-24T08:55:51;11.40;99.90
15625;DHT22;7912;51.376;6.126;2023-04-24T08:58:25;11.40;99.90
15625;DHT22;7912;51.376;6.126;2023-04-24T09:00:59;11.40;99.90
15625;DHT22;7912;51.376;6.126;2023-04-24T09:03:28;11.40;99.90
15625;DHT22;7912;51.376;6.126;2023-04-24T09:05:57;11.40;99.90
15625;DHT22;7912;51.376;6.126;2023-04-24T09:08:30;11.40;99.90
15625;DHT22;7912;51.376;6.126;2023-04-24T09:11:09;11.40;99.90
15625;DHT22;7912;51.376;6.126;2023-04-24T09:13:38;11.40;99.90
15625;DHT22;7912;51.376;6.126;2023-04-24T09:16:09;11.40;99.90
15625;DHT22;7912;51.376;6.126;2023-04-24T09:18:36;11.40;99.90
15625;DHT22;7912;51.376;6.126;2023-04-24T09:21:07;11.50;99.90
15625;DHT22;7912;51.376;6.126;2023-04-24T09:23:36;11.50;99.90
15625;DHT22;7912;51.376;6.126;2023-04-24T09:26:04;11.50;99.90
15625;DHT22;7912;51.376;6.126;2023-04-24T09:28:39;11.50;99.90
15625;DHT22;7912;51.376;6.126;2023-04-24T09:31:15;11.50;99.90
15625;DHT22;7912;51.376;6.126;2023-04-24T09:33:58;11.60;99.90
15625;DHT22;7912;51.376;6.126;2023-04-24T09:36:33;11.60;99.90
15625;DHT22;7912;51.376;6.126;2023-04-24T09:39:09;11.70;99.90
15625;DHT22;7912;51.376;6.126;2023-04-24T09:44:28;11.80;99.90
15625;DHT22;7912;51.376;6.126;2023-04-24T09:46:59;11.80;99.90
15625;DHT22;7912;51.376;6.126;2023-04-24T09:49:31;11.80;99.90
15625;DHT22;7912;51.376;6.126;2023-04-24T09:52:08;11.80;99.90
15625;DHT22;7912;51.376;6.126;2023-04-24T09:54:40;11.80;99.90
15625;DHT22;7912;51.376;6.126;2023-04-24T09:57:08;11.80;99.90
15625;DHT22;7912;51.376;6.126;2023-04-24T09:59:42;11.80;99.90
15625;DHT22;7912;51.376;6.126;2023-04-24T10:02:22;11.80;99.90
15625;DHT22;7912;51.376;6.126;2023-04-24T10:04:57;11.80;99.90
15625;DHT22;7912;51.376;6.126;2023-04-24T10:07:28;11.80;99.90
15625;DHT22;7912;51.376;6.126;2023-04-24T10:09:59;11.80;99.90
15625;DHT22;7912;51.376;6.126;2023-04-24T10:12:28;11.80;99.90
15625;DHT22;7912;51.376;6.126;2023-04-24T10:14:57;11.80;99.90
15625;DHT22;7912;51.376;6.126;2023-04-24T10:17:28;11.80;99.90
15625;DHT22;7912;51.376;6.126;2023-04-24T10:19:56;11.80;99.90
15625;DHT22;7912;51.376;6.126;2023-04-24T10:22:27;11.80;99.90
15625;DHT22;7912;51.376;6.126;2023-04-24T10:24:57;11.90;99.90
15625;DHT22;7912;51.376;6.126;2023-04-24T10:27:26;11.90;99.90
15625;DHT22;7912;51.376;6.126;2023-04-24T10:29:55;12.00;99.90
15625;DHT22;7912;51.376;6.126;2023-04-24T10:32:23;12.20;99.90
15625;DHT22;7912;51.376;6.126;2023-04-24T10:35:10;12.30;99.90
15625;DHT22;7912;51.376;6.126;2023-04-24T10:37:49;12.40;99.90
15625;DHT22;7912;51.376;6.126;2023-04-24T10:40:30;12.50;99.90
15625;DHT22;7912;51.376;6.126;2023-04-24T10:43:02;12.60;99.90
15625;DHT22;7912;51.376;6.126;2023-04-24T10:49:45;12.60;99.90
15625;DHT22;7912;51.376;6.126;2023-04-24T10:52:15;12.70;99.90
15625;DHT22;7912;51.376;6.126;2023-04-24T10:54:47;12.80;99.90
15625;DHT22;7912;51.376;6.126;2023-04-24T10:59:49;12.90;99.90
15625;DHT22;7912;51.376;6.126;2023-04-24T11:02:19;13.10;99.90
15625;DHT22;7912;51.376;6.126;2023-04-24T11:05:07;13.20;99.90
15625;DHT22;7912;51.376;6.126;2023-04-24T11:10:44;13.60;99.90
15625;DHT22;7912;51.376;6.126;2023-04-24T11:17:42;13.80;99.90
15625;DHT22;7912;51.376;6.126;2023-04-24T11:20:11;14.00;99.90
15625;DHT22;7912;51.376;6.126;2023-04-24T11:22:54;14.10;99.90
15625;DHT22;7912;51.376;6.126;2023-04-24T11:25:24;14.20;99.90
15625;DHT22;7912;51.376;6.126;2023-04-24T11:28:03;14.30;99.90
15625;DHT22;7912;51.376;6.126;2023-04-24T11:30:32;14.30;99.90
15625;DHT22;7912;51.376;6.126;2023-04-24T11:33:04;14.20;99.90
15625;DHT22;7912;51.376;6.126;2023-04-24T11:35:39;14.20;99.90
15625;DHT22;7912;51.376;6.126;2023-04-24T11:38:07;14.10;99.90
15625;DHT22;7912;51.376;6.126;2023-04-24T11:40:39;14.00;99.90
15625;DHT22;7912;51.376;6.126;2023-04-24T11:43:08;13.90;99.90
15625;DHT22;7912;51.376;6.126;2023-04-24T11:45:36;13.80;99.90
15625;DHT22;7912;51.376;6.126;2023-04-24T11:48:04;13.70;99.90
15625;DHT22;7912;51.376;6.126;2023-04-24T11:50:31;13.70;99.90
15625;DHT22;7912;51.376;6.126;2023-04-24T11:52:59;13.70;99.90
15625;DHT22;7912;51.376;6.126;2023-04-24T11:55:29;13.80;99.90
15625;DHT22;7912;51.376;6.126;2023-04-24T11:57:58;13.90;99.90
15625;DHT22;7912;51.376;6.126;2023-04-24T12:00:28;13.90;99.90
15625;DHT22;7912;51.376;6.126;2023-04-24T12:03:12;14.00;99.90
15625;DHT22;7912;51.376;6.126;2023-04-24T12:05:40;14.00;99.90
15625;DHT22;7912;51.376;6.126;2023-04-24T12:08:08;14.10;99.90
15625;DHT22;7912;51.376;6.126;2023-04-24T12:10:36;14.10;99.90
15625;DHT22;7912;51.376;6.126;2023-04-24T12:13:24;14.10;99.90
15625;DHT22;7912;51.376;6.126;2023-04-24T12:15:52;14.00;99.90
15625;DHT22;7912;51.376;6.126;2023-04-24T12:18:24;13.90;99.90
15625;DHT22;7912;51.376;6.126;2023-04-24T12:20:51;13.90;99.90
15625;DHT22;7912;51.376;6.126;2023-04-24T12:23:48;13.90;99.90
15625;DHT22;7912;51.376;6.126;2023-04-24T12:26:20;13.90;99.90
15625;DHT22;7912;51.376;6.126;2023-04-24T12:28:49;13.90;99.90
15625;DHT22;7912;51.376;6.126;2023-04-24T12:31:17;13.90;99.90
15625;DHT22;7912;51.376;6.126;2023-04-24T12:33:44;13.90;99.90
15625;DHT22;7912;51.376;6.126;2023-04-24T12:36:12;14.00;99.90
15625;DHT22;7912;51.376;6.126;2023-04-24T12:38:43;14.00;99.90
15625;DHT22;7912;51.376;6.126;2023-04-24T12:41:14;14.00;99.90
15625;DHT22;7912;51.376;6.126;2023-04-24T12:43:52;14.10;99.90
15625;DHT22;7912;51.376;6.126;2023-04-24T12:46:20;14.10;99.90
15625;DHT22;7912;51.376;6.126;2023-04-24T12:48:48;14.10;99.90
15625;DHT22;7912;51.376;6.126;2023-04-24T12:51:16;14.20;99.90
15625;DHT22;7912;51.376;6.126;2023-04-24T12:53:43;14.40;99.90
15625;DHT22;7912;51.376;6.126;2023-04-24T12:56:11;14.50;99.90
15625;DHT22;7912;51.376;6.126;2023-04-24T12:58:39;14.70;99.90
15625;DHT22;7912;51.376;6.126;2023-04-24T13:01:06;15.00;99.90
15625;DHT22;7912;51.376;6.126;2023-04-24T13:03:34;15.20;99.90
15625;DHT22;7912;51.376;6.126;2023-04-24T13:06:02;15.30;99.90
15625;DHT22;7912;51.376;6.126;2023-04-24T13:08:32;15.50;99.90
15625;DHT22;7912;51.376;6.126;2023-04-24T13:11:00;15.60;99.90
15625;DHT22;7912;51.376;6.126;2023-04-24T13:13:27;15.70;99.90
15625;DHT22;7912;51.376;6.126;2023-04-24T13:15:54;15.80;99.90
15625;DHT22;7912;51.376;6.126;2023-04-24T13:18:22;15.90;99.90
15625;DHT22;7912;51.376;6.126;2023-04-24T13:20:50;15.90;99.90
15625;DHT22;7912;51.376;6.126;2023-04-24T13:23:18;15.90;99.90
15625;DHT22;7912;51.376;6.126;2023-04-24T13:25:45;15.90;99.90
15625;DHT22;7912;51.376;6.126;2023-04-24T13:28:14;15.90;99.90
15625;DHT22;7912;51.376;6.126;2023-04-24T13:30:42;15.90;99.90
15625;DHT22;7912;51.376;6.126;2023-04-24T13:33:15;15.90;99.90
15625;DHT22;7912;51.376;6.126;2023-04-24T13:35:42;15.80;99.90
15625;DHT22;7912;51.376;6.126;2023-04-24T13:38:13;15.70;99.90
15625;DHT22;7912;51.376;6.126;2023-04-24T13:40:40;15.80;99.90
15625;DHT22;7912;51.376;6.126;2023-04-24T13:43:08;15.80;99.90
15625;DHT22;7912;51.376;6.126;2023-04-24T13:45:36;15.90;99.90
15625;DHT22;7912;51.376;6.126;2023-04-24T13:48:05;16.00;99.90
15625;DHT22;7912;51.376;6.126;2023-04-24T13:50:52;16.10;99.90
15625;DHT22;7912;51.376;6.126;2023-04-24T13:53:19;16.30;99.90
15625;DHT22;7912;51.376;6.126;2023-04-24T13:55:47;16.40;99.90
15625;DHT22;7912;51.376;6.126;2023-04-24T13:58:15;16.50;99.90
15625;DHT22;7912;51.376;6.126;2023-04-24T14:00:42;16.60;99.50
15625;DHT22;7912;51.376;6.126;2023-04-24T14:03:10;16.60;99.10
15625;DHT22;7912;51.376;6.126;2023-04-24T14:05:38;16.50;98.50
15625;DHT22;7912;51.376;6.126;2023-04-24T14:08:06;16.50;98.30
15625;DHT22;7912;51.376;6.126;2023-04-24T14:10:33;16.40;98.00
15625;DHT22;7912;51.376;6.126;2023-04-24T14:13:01;16.30;98.10
15625;DHT22;7912;51.376;6.126;2023-04-24T14:15:28;16.10;98.30
15625;DHT22;7912;51.376;6.126;2023-04-24T14:17:56;16.00;98.70
15625;DHT22;7912;51.376;6.126;2023-04-24T14:20:25;15.90;99.10
15625;DHT22;7912;51.376;6.126;2023-04-24T14:22:52;15.80;99.50
15625;DHT22;7912;51.376;6.126;2023-04-24T14:25:20;15.80;99.60
15625;DHT22;7912;51.376;6.126;2023-04-24T14:27:49;15.80;99.80
15625;DHT22;7912;51.376;6.126;2023-04-24T14:30:17;15.80;99.60
15625;DHT22;7912;51.376;6.126;2023-04-24T14:33:06;15.80;99.90
15625;DHT22;7912;51.376;6.126;2023-04-24T14:36:04;15.70;99.80
15625;DHT22;7912;51.376;6.126;2023-04-24T14:38:32;15.70;99.80
15625;DHT22;7912;51.376;6.126;2023-04-24T14:40:59;15.70;99.70
15625;DHT22;7912;51.376;6.126;2023-04-24T14:43:30;15.60;99.90
15625;DHT22;7912;51.376;6.126;2023-04-24T14:45:59;15.60;99.90
15625;DHT22;7912;51.376;6.126;2023-04-24T14:48:27;15.60;99.90
15625;DHT22;7912;51.376;6.126;2023-04-24T14:50:54;15.70;99.90
15625;DHT22;7912;51.376;6.126;2023-04-24T14:53:21;15.70;99.90
15625;DHT22;7912;51.376;6.126;2023-04-24T14:55:48;15.80;99.90
15625;DHT22;7912;51.376;6.126;2023-04-24T14:58:16;15.90;99.90
15625;DHT22;7912;51.376;6.126;2023-04-24T15:00:43;16.00;99.90
15625;DHT22;7912;51.376;6.126;2023-04-24T15:03:10;16.00;99.90
15625;DHT22;7912;51.376;6.126;2023-04-24T15:05:38;16.10;99.90
15625;DHT22;7912;51.376;6.126;2023-04-24T15:08:06;16.20;99.90
15625;DHT22;7912;51.376;6.126;2023-04-24T15:10:38;16.30;99.90
15625;DHT22;7912;51.376;6.126;2023-04-24T15:13:07;16.40;99.90
15625;DHT22;7912;51.376;6.126;2023-04-24T15:15:34;16.60;99.90
15625;DHT22;7912;51.376;6.126;2023-04-24T15:18:02;16.80;99.90
15625;DHT22;7912;51.376;6.126;2023-04-24T15:20:29;17.10;99.90
15625;DHT22;7912;51.376;6.126;2023-04-24T15:22:57;17.20;99.40
15625;DHT22;7912;51.376;6.126;2023-04-24T15:25:27;17.20;98.80
15625;DHT22;7912;51.376;6.126;2023-04-24T15:27:54;17.10;98.00
15625;DHT22;7912;51.376;6.126;2023-04-24T15:30:22;17.10;98.30
15625;DHT22;7912;51.376;6.126;2023-04-24T15:32:49;17.00;98.20
15625;DHT22;7912;51.376;6.126;2023-04-24T15:35:16;16.80;98.50
15625;DHT22;7912;51.376;6.126;2023-04-24T15:37:44;16.80;98.90
15625;DHT22;7912;51.376;6.126;2023-04-24T15:40:12;16.80;99.20
15625;DHT22;7912;51.376;6.126;2023-04-24T15:42:43;16.80;99.20
15625;DHT22;7912;51.376;6.126;2023-04-24T15:45:12;16.80;99.10
15625;DHT22;7912;51.376;6.126;2023-04-24T15:47:40;16.90;99.40
15625;DHT22;7912;51.376;6.126;2023-04-24T15:50:07;17.20;99.20
15625;DHT22;7912;51.376;6.126;2023-04-24T15:52:39;17.40;98.30
15625;DHT22;7912;51.376;6.126;2023-04-24T15:55:07;17.60;97.50
15625;DHT22;7912;51.376;6.126;2023-04-24T16:00:43;18.00;95.30
15625;DHT22;7912;51.376;6.126;2023-04-24T16:03:12;18.20;95.30
15625;DHT22;7912;51.376;6.126;2023-04-24T16:05:43;18.30;95.00
15625;DHT22;7912;51.376;6.126;2023-04-24T16:08:11;18.40;95.20
15625;DHT22;7912;51.376;6.126;2023-04-24T16:10:41;18.40;94.10
15625;DHT22;7912;51.376;6.126;2023-04-24T16:13:09;18.60;94.20
15625;DHT22;7912;51.376;6.126;2023-04-24T16:15:36;18.70;93.70
15625;DHT22;7912;51.376;6.126;2023-04-24T16:18:04;18.80;93.40
15625;DHT22;7912;51.376;6.126;2023-04-24T16:20:32;18.80;92.80
15625;DHT22;7912;51.376;6.126;2023-04-24T16:22:59;18.80;92.50
15625;DHT22;7912;51.376;6.126;2023-04-24T16:25:27;18.70;92.40
15625;DHT22;7912;51.376;6.126;2023-04-24T16:27:54;18.60;92.50
15625;DHT22;7912;51.376;6.126;2023-04-24T16:30:22;18.40;92.40
15625;DHT22;7912;51.376;6.126;2023-04-24T16:32:53;18.20;92.20
15625;DHT22;7912;51.376;6.126;2023-04-24T16:35:23;18.00;92.70
15625;DHT22;7912;51.376;6.126;2023-04-24T16:37:51;17.60;93.20
15625;DHT22;7912;51.376;6.126;2023-04-24T16:40:19;17.30;93.60
15625;DHT22;7912;51.376;6.126;2023-04-24T16:42:47;17.00;94.20
15625;DHT22;7912;51.376;6.126;2023-04-24T16:45:14;16.70;94.90
15625;DHT22;7912;51.376;6.126;2023-04-24T16:47:43;16.50;95.80
15625;DHT22;7912;51.376;6.126;2023-04-24T16:50:11;16.40;96.40